Time,TemperatureF,DewpointF,PressureIn,WindDirection,WindDirectionDegrees,WindSpeedMPH,WindSpeedGustMPH,Humidity,HourlyPrecipIn,Conditions,Clouds,dailyrainin,SoftwareType,DateUTC
2013-08-27 05:42:00,73.6,70.8,30.00,North,0,0.0,0.0,91,0.09,,,0.00,VWS V14.01,2013-08-27 09:42:00,
2013-08-27 05:44:00,73.6,70.8,30.00,North,0,0.0,0.0,91,0.00,,,0.00,VWS V14.01,2013-08-27 09:44:00,
2013-08-27 05:46:00,73.6,70.8,30.00,North,0,0.0,0.0,91,0.00,,,0.00,VWS V14.01,2013-08-27 09:46:00,
2013-08-27 05:48:00,73.6,70.8,30.00,North,0,0.0,0.0,91,0.00,,,0.00,VWS V14.01,2013-08-27 09:48:00,
2013-08-27 05:50:00,73.6,70.8,30.00,North,0,0.0,0.0,91,0.00,,,0.00,VWS V14.01,2013-08-27 09:50:00,
2013-08-27 05:55:00,73.6,70.8,30.00,North,0,0.0,0.0,91,0.00,,,0.00,VWS V14.01,2013-08-27 09:55:00,
2013-08-27 05:56:00,73.6,70.8,30.00,North,0,0.0,0.0,91,0.00,,,0.00,VWS V14.01,2013-08-27 09:56:00,
2013-08-27 05:58:00,73.6,70.8,30.00,North,0,0.0,0.0,91,0.00,,,0.00,VWS V14.01,2013-08-27 09:58:00,
2013-08-27 06:00:00,73.6,70.8,30.00,North,0,0.0,0.0,91,0.00,,,0.00,VWS V14.01,2013-08-27 10:00:00,
2013-08-27 06:01:00,73.6,70.8,30.00,North,0,0.0,0.0,91,0.00,,,0.00,VWS V14.01,2013-08-27 10:01:00,
2013-08-27 06:03:00,73.6,70.8,30.00,North,0,0.0,0.0,91,0.00,,,0.00,VWS V14.01,2013-08-27 10:03:00,
2013-08-27 06:06:00,73.6,70.8,30.00,North,0,0.0,0.0,91,0.00,,,0.00,VWS V14.01,2013-08-27 10:06:00,
2013-08-27 06:07:00,73.6,70.8,30.00,North,0,0.0,0.0,91,0.00,,,0.00,VWS V14.01,2013-08-27 10:07:00,
2013-08-27 06:09:00,73.6,70.8,30.00,North,0,0.0,0.0,91,0.00,,,0.00,VWS V14.01,2013-08-27 10:09:00,
2013-08-27 06:12:00,73.4,70.6,30.00,North,0,0.0,0.0,91,0.00,,,0.00,VWS V14.01,2013-08-27 10:12:00,
2013-08-27 06:13:00,73.4,70.6,30.00,North,0,0.0,0.0,91,0.00,,,0.00,VWS V14.01,2013-08-27 10:13:00,
2013-08-27 06:14:00,73.4,70.6,30.00,North,0,0.0,0.0,91,0.00,,,0.00,VWS V14.01,2013-08-27 10:14:00,
2013-08-27 06:18:00,73.4,70.6,30.00,North,0,0.0,0.0,91,0.00,,,0.00,VWS V14.01,2013-08-27 10:18:00,
2013-08-27 06:19:00,73.4,70.6,30.00,North,0,0.0,0.0,91,0.00,,,0.00,VWS V14.01,2013-08-27 10:19:00,
2013-08-27 06:20:00,73.4,70.6,30.00,North,0,0.0,0.0,91,0.00,,,0.00,VWS V14.01,2013-08-27 10:20:00,
2013-08-27 06:21:00,73.4,70.6,30.00,North,0,0.0,0.0,91,0.00,,,0.00,VWS V14.01,2013-08-27 10:21:00,
2013-08-27 06:26:00,73.4,70.6,30.00,North,0,0.0,0.0,91,0.00,,,0.00,VWS V14.01,2013-08-27 10:26:00,
2013-08-27 06:28:00,73.4,70.6,30.00,North,0,0.0,0.0,91,0.00,,,0.00,VWS V14.01,2013-08-27 10:28:00,
2013-08-27 06:30:00,73.4,70.6,30.00,North,0,0.0,0.0,91,0.00,,,0.00,VWS V14.01,2013-08-27 10:30:00,
2013-08-27 06:33:00,73.4,70.6,30.00,North,0,0.0,0.0,91,0.00,,,0.00,VWS V14.01,2013-08-27 10:33:00,
2013-08-27 06:34:00,73.4,70.6,30.00,North,0,0.0,0.0,91,0.00,,,0.00,VWS V14.01,2013-08-27 10:34:00,
2013-08-27 06:36:00,73.4,70.6,30.00,North,0,0.0,0.0,91,0.00,,,0.00,VWS V14.01,2013-08-27 10:36:00,
2013-08-27 06:38:00,73.4,70.6,30.00,North,0,0.0,0.0,91,0.00,,,0.00,VWS V14.01,2013-08-27 10:38:00,
2013-08-27 06:41:00,73.4,70.6,30.00,North,0,0.0,0.0,91,0.00,,,0.00,VWS V14.01,2013-08-27 10:41:00,
2013-08-27 06:43:00,73.4,70.6,30.00,North,0,0.0,0.0,91,0.00,,,0.00,VWS V14.01,2013-08-27 10:43:00,
2013-08-27 06:44:00,73.4,70.6,30.00,North,0,0.0,0.0,91,0.00,,,0.00,VWS V14.01,2013-08-27 10:44:00,
2013-08-27 06:45:00,73.4,70.6,30.00,North,0,0.0,0.0,91,0.00,,,0.00,VWS V14.01,2013-08-27 10:45:00,
2013-08-27 06:48:00,73.4,70.6,30.00,North,0,0.0,0.0,91,0.00,,,0.00,VWS V14.01,2013-08-27 10:48:00,
2013-08-27 06:52:00,73.4,70.9,30.00,North,0,0.0,0.0,92,0.00,,,0.00,VWS V14.01,2013-08-27 10:52:00,
2013-08-27 06:54:00,73.4,70.9,30.00,North,0,0.0,0.0,92,0.00,,,0.00,VWS V14.01,2013-08-27 10:54:00,
2013-08-27 06:56:00,73.4,70.9,30.00,North,0,0.0,0.0,92,0.00,,,0.00,VWS V14.01,2013-08-27 10:56:00,
2013-08-27 06:57:00,73.4,70.9,30.00,North,0,0.0,0.0,92,0.00,,,0.00,VWS V14.01,2013-08-27 10:57:00,
2013-08-27 06:59:00,73.4,70.9,30.03,North,0,0.0,0.0,92,0.00,,,0.00,VWS V14.01,2013-08-27 10:59:00,
2013-08-27 07:02:00,73.4,70.9,30.03,North,0,0.0,0.0,92,0.00,,,0.00,VWS V14.01,2013-08-27 11:02:00,
2013-08-27 07:03:00,73.4,70.9,30.03,North,0,0.0,0.0,92,0.00,,,0.00,VWS V14.01,2013-08-27 11:03:00,
2013-08-27 07:04:00,73.4,70.9,30.03,North,0,0.0,0.0,92,0.00,,,0.00,VWS V14.01,2013-08-27 11:04:00,
2013-08-27 07:05:00,73.4,70.9,30.03,North,0,0.0,0.0,92,0.00,,,0.00,VWS V14.01,2013-08-27 11:05:00,
2013-08-27 07:07:00,73.4,70.9,30.03,North,0,0.0,0.0,92,0.00,,,0.00,VWS V14.01,2013-08-27 11:07:00,
2013-08-27 07:09:00,73.4,70.9,30.03,North,0,0.0,0.0,92,0.00,,,0.00,VWS V14.01,2013-08-27 11:09:00,
2013-08-27 07:10:00,73.4,70.9,30.03,North,0,0.0,0.0,92,0.00,,,0.00,VWS V14.01,2013-08-27 11:10:00,
2013-08-27 07:13:00,73.4,70.9,30.03,North,0,0.0,0.0,92,0.00,,,0.00,VWS V14.01,2013-08-27 11:13:00,
2013-08-27 07:16:00,73.4,70.9,30.03,North,0,0.0,0.0,92,0.00,,,0.00,VWS V14.01,2013-08-27 11:16:00,
2013-08-27 07:20:00,73.4,70.9,30.03,North,0,0.0,0.0,92,0.00,,,0.00,VWS V14.01,2013-08-27 11:20:00,
2013-08-27 07:21:00,73.4,70.9,30.03,North,0,0.0,0.0,92,0.00,,,0.00,VWS V14.01,2013-08-27 11:21:00,
2013-08-27 07:23:00,73.4,70.9,30.03,North,0,0.0,0.0,92,0.00,,,0.00,VWS V14.01,2013-08-27 11:23:00,
2013-08-27 07:28:00,73.4,70.9,30.03,North,0,0.0,0.0,92,0.00,,,0.00,VWS V14.01,2013-08-27 11:28:00,
2013-08-27 07:30:00,73.4,70.9,30.03,North,0,0.0,0.0,92,0.00,,,0.00,VWS V14.01,2013-08-27 11:30:00,
2013-08-27 07:31:00,73.4,70.9,30.03,North,0,0.0,0.0,92,0.00,,,0.00,VWS V14.01,2013-08-27 11:31:00,
2013-08-27 07:32:00,73.6,71.1,30.03,North,0,0.0,0.0,92,0.00,,,0.00,VWS V14.01,2013-08-27 11:32:00,
2013-08-27 07:36:00,73.6,71.1,30.03,North,0,0.0,0.0,92,0.00,,,0.00,VWS V14.01,2013-08-27 11:36:00,
2013-08-27 07:38:00,73.6,71.1,30.03,North,0,0.0,0.0,92,0.00,,,0.00,VWS V14.01,2013-08-27 11:38:00,
2013-08-27 07:42:00,73.8,71.3,30.03,North,0,0.0,0.0,92,0.00,,,0.00,VWS V14.01,2013-08-27 11:42:00,
2013-08-27 07:43:00,73.8,71.3,30.03,North,0,0.0,0.0,92,0.00,,,0.00,VWS V14.01,2013-08-27 11:43:00,
2013-08-27 07:45:00,73.8,71.6,30.03,North,0,0.0,0.0,93,0.00,,,0.00,VWS V14.01,2013-08-27 11:45:00,
2013-08-27 07:47:00,73.8,71.6,30.03,North,0,0.0,0.0,93,0.00,,,0.00,VWS V14.01,2013-08-27 11:47:00,
2013-08-27 07:48:00,73.9,71.8,30.03,North,0,0.0,0.0,93,0.00,,,0.00,VWS V14.01,2013-08-27 11:48:00,
2013-08-27 07:49:00,73.9,71.8,30.03,North,0,0.0,0.0,93,0.00,,,0.00,VWS V14.01,2013-08-27 11:49:00,
2013-08-27 07:52:00,73.9,71.8,30.03,North,0,0.0,0.0,93,0.00,,,0.00,VWS V14.01,2013-08-27 11:52:00,
2013-08-27 07:53:00,73.9,71.8,30.03,North,0,0.0,0.0,93,0.00,,,0.00,VWS V14.01,2013-08-27 11:53:00,
2013-08-27 07:55:00,74.1,72.0,30.03,North,0,0.0,0.0,93,0.00,,,0.00,VWS V14.01,2013-08-27 11:55:00,
2013-08-27 07:57:00,74.1,72.0,30.03,North,0,0.0,0.0,93,0.00,,,0.00,VWS V14.01,2013-08-27 11:57:00,
2013-08-27 07:58:00,74.1,72.0,30.03,North,0,0.0,0.0,93,0.00,,,0.00,VWS V14.01,2013-08-27 11:58:00,
2013-08-27 07:59:00,74.1,72.0,30.03,North,0,0.0,0.0,93,0.00,,,0.00,VWS V14.01,2013-08-27 11:59:00,
2013-08-27 08:01:00,74.3,72.2,30.03,North,0,0.0,0.0,93,0.00,,,0.00,VWS V14.01,2013-08-27 12:01:00,
2013-08-27 08:05:00,74.3,72.2,30.03,North,0,0.0,0.0,93,0.00,,,0.00,VWS V14.01,2013-08-27 12:05:00,
2013-08-27 08:06:00,74.3,72.2,30.03,North,0,0.0,0.0,93,0.00,,,0.00,VWS V14.01,2013-08-27 12:06:00,
2013-08-27 08:08:00,74.5,72.3,30.03,North,0,0.0,0.0,93,0.00,,,0.00,VWS V14.01,2013-08-27 12:08:00,
2013-08-27 08:09:00,74.5,72.3,30.03,North,0,0.0,0.0,93,0.00,,,0.00,VWS V14.01,2013-08-27 12:09:00,
2013-08-27 08:12:00,74.5,72.3,30.03,North,0,0.0,0.0,93,0.00,,,0.00,VWS V14.01,2013-08-27 12:12:00,
2013-08-27 08:14:00,74.7,72.8,30.03,North,0,0.0,0.0,94,0.00,,,0.00,VWS V14.01,2013-08-27 12:14:00,
2013-08-27 08:17:00,74.7,72.8,30.03,North,0,0.0,0.0,94,0.00,,,0.00,VWS V14.01,2013-08-27 12:17:00,
2013-08-27 08:18:00,74.8,73.0,30.03,North,0,0.0,0.0,94,0.00,,,0.00,VWS V14.01,2013-08-27 12:18:00,
2013-08-27 08:20:00,74.8,73.0,30.03,North,0,0.0,0.0,94,0.00,,,0.00,VWS V14.01,2013-08-27 12:20:00,
2013-08-27 08:21:00,74.8,73.0,30.03,North,0,0.0,0.0,94,0.00,,,0.00,VWS V14.01,2013-08-27 12:21:00,
2013-08-27 08:24:00,74.8,73.0,30.03,North,0,0.0,0.0,94,0.00,,,0.00,VWS V14.01,2013-08-27 12:24:00,
2013-08-27 08:25:00,74.8,73.0,30.03,North,0,0.0,0.0,94,0.00,,,0.00,VWS V14.01,2013-08-27 12:25:00,
2013-08-27 08:27:00,75.0,73.2,30.03,North,0,0.0,0.0,94,0.00,,,0.00,VWS V14.01,2013-08-27 12:27:00,
2013-08-27 08:31:00,75.2,73.4,30.03,North,0,0.0,0.0,94,0.00,,,0.00,VWS V14.01,2013-08-27 12:31:00,
2013-08-27 08:33:00,75.2,73.4,30.03,North,0,0.0,0.0,94,0.00,,,0.00,VWS V14.01,2013-08-27 12:33:00,
2013-08-27 08:34:00,75.2,73.4,30.03,North,0,0.0,0.0,94,0.00,,,0.00,VWS V14.01,2013-08-27 12:34:00,
2013-08-27 08:36:00,75.2,73.4,30.03,North,0,0.0,0.0,94,0.00,,,0.00,VWS V14.01,2013-08-27 12:36:00,
2013-08-27 08:39:00,75.4,73.5,30.03,North,0,0.0,0.0,94,0.00,,,0.00,VWS V14.01,2013-08-27 12:39:00,
2013-08-27 08:40:00,75.4,73.5,30.03,North,0,0.0,0.0,94,0.00,,,0.00,VWS V14.01,2013-08-27 12:40:00,
2013-08-27 08:41:00,75.6,73.7,30.03,North,0,0.0,0.0,94,0.00,,,0.00,VWS V14.01,2013-08-27 12:41:00,
2013-08-27 08:43:00,75.6,73.7,30.03,North,0,0.0,0.0,94,0.00,,,0.00,VWS V14.01,2013-08-27 12:43:00,
2013-08-27 08:45:00,75.7,73.9,30.03,North,0,0.0,0.0,94,0.00,,,0.00,VWS V14.01,2013-08-27 12:45:00,
2013-08-27 08:46:00,75.7,73.9,30.03,North,0,0.0,0.0,94,0.00,,,0.00,VWS V14.01,2013-08-27 12:46:00,
2013-08-27 08:48:00,75.7,73.9,30.03,North,0,0.0,0.0,94,0.00,,,0.00,VWS V14.01,2013-08-27 12:48:00,
2013-08-27 08:50:00,75.7,73.9,30.03,North,0,0.0,0.0,94,0.00,,,0.00,VWS V14.01,2013-08-27 12:50:00,
2013-08-27 08:53:00,75.9,74.1,30.03,North,0,0.0,0.0,94,0.00,,,0.00,VWS V14.01,2013-08-27 12:53:00,
2013-08-27 08:54:00,75.9,74.1,30.03,North,0,0.0,0.0,94,0.00,,,0.00,VWS V14.01,2013-08-27 12:54:00,
2013-08-27 08:56:00,76.1,74.2,30.03,North,0,0.0,0.0,94,0.00,,,0.00,VWS V14.01,2013-08-27 12:56:00,
2013-08-27 08:59:00,76.1,74.2,30.03,North,0,0.0,0.0,94,0.00,,,0.00,VWS V14.01,2013-08-27 12:59:00,
2013-08-27 09:00:00,76.3,74.4,30.03,North,0,0.0,0.0,94,0.00,,,0.00,VWS V14.01,2013-08-27 13:00:00,
2013-08-27 09:01:00,76.3,74.4,30.03,North,0,0.0,0.0,94,0.00,,,0.00,VWS V14.01,2013-08-27 13:01:00,
2013-08-27 09:02:00,76.3,74.4,30.03,North,0,0.0,0.0,94,0.00,,,0.00,VWS V14.01,2013-08-27 13:02:00,
2013-08-27 09:04:00,76.5,74.6,30.03,North,0,0.0,0.0,94,0.00,,,0.00,VWS V14.01,2013-08-27 13:04:00,
2013-08-27 09:05:00,76.5,74.6,30.03,North,0,0.0,0.0,94,0.00,,,0.00,VWS V14.01,2013-08-27 13:05:00,
2013-08-27 09:07:00,76.5,74.6,30.03,North,0,0.0,0.0,94,0.00,,,0.00,VWS V14.01,2013-08-27 13:07:00,
2013-08-27 09:10:00,76.6,74.8,30.03,North,0,0.0,0.0,94,0.00,,,0.00,VWS V14.01,2013-08-27 13:10:00,
2013-08-27 09:12:00,76.8,75.0,30.03,North,0,0.0,0.0,94,0.00,,,0.00,VWS V14.01,2013-08-27 13:12:00,
2013-08-27 09:15:00,76.8,75.0,30.06,North,0,0.0,0.0,94,0.00,,,0.00,VWS V14.01,2013-08-27 13:15:00,
2013-08-27 09:16:00,77.0,74.8,30.06,North,0,0.0,0.0,93,0.00,,,0.00,VWS V14.01,2013-08-27 13:16:00,
2013-08-27 09:19:00,77.2,75.0,30.06,North,0,0.0,0.0,93,0.00,,,0.00,VWS V14.01,2013-08-27 13:19:00,
2013-08-27 09:21:00,77.4,75.2,30.06,North,0,0.0,0.0,93,0.00,,,0.00,VWS V14.01,2013-08-27 13:21:00,
2013-08-27 09:24:00,77.5,75.0,30.06,North,0,0.0,0.0,92,0.00,,,0.00,VWS V14.01,2013-08-27 13:24:00,
2013-08-27 09:25:00,77.5,75.0,30.06,North,0,0.0,0.0,92,0.00,,,0.00,VWS V14.01,2013-08-27 13:25:00,
2013-08-27 09:26:00,77.5,75.0,30.06,North,0,0.0,0.0,92,0.00,,,0.00,VWS V14.01,2013-08-27 13:26:00,
2013-08-27 09:31:00,77.9,75.1,30.06,North,0,0.0,0.0,91,0.00,,,0.00,VWS V14.01,2013-08-27 13:31:00,
2013-08-27 09:32:00,78.1,75.2,30.06,North,0,0.0,0.0,91,0.00,,,0.00,VWS V14.01,2013-08-27 13:32:00,
2013-08-27 09:33:00,78.1,75.2,30.06,North,0,0.0,0.0,91,0.00,,,0.00,VWS V14.01,2013-08-27 13:33:00,
2013-08-27 09:36:00,78.4,75.3,30.06,North,0,0.0,0.0,90,0.00,,,0.00,VWS V14.01,2013-08-27 13:36:00,
2013-08-27 09:37:00,78.4,75.3,30.06,North,0,0.0,0.0,90,0.00,,,0.00,VWS V14.01,2013-08-27 13:37:00,
2013-08-27 09:38:00,78.6,75.1,30.06,North,0,0.0,0.0,89,0.00,,,0.00,VWS V14.01,2013-08-27 13:38:00,
2013-08-27 09:39:00,78.6,75.1,30.06,North,0,0.0,0.0,89,0.00,,,0.00,VWS V14.01,2013-08-27 13:39:00,
2013-08-27 09:42:00,78.8,74.9,30.06,North,0,0.0,0.0,88,0.00,,,0.00,VWS V14.01,2013-08-27 13:42:00,
2013-08-27 09:43:00,79.0,75.1,30.06,North,0,0.0,0.0,88,0.00,,,0.00,VWS V14.01,2013-08-27 13:43:00,
2013-08-27 09:44:00,79.0,74.8,30.06,North,0,0.0,0.0,87,0.00,,,0.00,VWS V14.01,2013-08-27 13:44:00,
2013-08-27 09:49:00,79.3,74.8,30.06,North,0,0.0,0.0,86,0.00,,,0.00,VWS V14.01,2013-08-27 13:49:00,
2013-08-27 09:50:00,79.3,74.8,30.06,North,0,0.0,0.0,86,0.00,,,0.00,VWS V14.01,2013-08-27 13:50:00,
2013-08-27 09:53:00,79.5,74.6,30.06,North,0,0.0,0.0,85,0.00,,,0.00,VWS V14.01,2013-08-27 13:53:00,
2013-08-27 09:57:00,79.7,74.1,30.06,North,0,0.0,0.0,83,0.00,,,0.00,VWS V14.01,2013-08-27 13:57:00,
2013-08-27 09:58:00,79.9,74.3,30.06,North,0,0.0,0.0,83,0.00,,,0.00,VWS V14.01,2013-08-27 13:58:00,
2013-08-27 09:59:00,79.9,73.9,30.06,North,0,0.0,0.0,82,0.00,,,0.00,VWS V14.01,2013-08-27 13:59:00,
2013-08-27 10:02:00,80.1,73.7,30.06,North,0,0.0,0.0,81,0.00,,,0.00,VWS V14.01,2013-08-27 14:02:00,
2013-08-27 10:05:00,80.1,73.3,30.06,North,0,0.0,0.0,80,0.00,,,0.00,VWS V14.01,2013-08-27 14:05:00,
2013-08-27 10:06:00,80.2,73.1,30.06,North,0,0.0,0.0,79,0.00,,,0.00,VWS V14.01,2013-08-27 14:06:00,
2013-08-27 10:09:00,80.4,73.3,30.06,North,0,0.0,0.0,79,0.00,,,0.00,VWS V14.01,2013-08-27 14:09:00,
2013-08-27 10:10:00,80.4,72.9,30.06,North,0,0.0,0.0,78,0.00,,,0.00,VWS V14.01,2013-08-27 14:10:00,
2013-08-27 10:13:00,80.6,72.7,30.06,North,0,0.0,0.0,77,0.00,,,0.00,VWS V14.01,2013-08-27 14:13:00,
2013-08-27 10:14:00,80.8,72.9,30.06,North,0,0.0,0.0,77,0.00,,,0.00,VWS V14.01,2013-08-27 14:14:00,
2013-08-27 10:16:00,80.8,72.5,30.06,North,0,0.0,0.0,76,0.00,,,0.00,VWS V14.01,2013-08-27 14:16:00,
2013-08-27 10:19:00,81.1,72.5,30.06,North,0,0.0,0.0,75,0.00,,,0.00,VWS V14.01,2013-08-27 14:19:00,
2013-08-27 10:20:00,81.1,72.5,30.06,North,0,0.0,0.0,75,0.00,,,0.00,VWS V14.01,2013-08-27 14:20:00,
2013-08-27 10:23:00,81.5,72.4,30.06,North,0,0.0,0.0,74,0.00,,,0.00,VWS V14.01,2013-08-27 14:23:00,
2013-08-27 10:25:00,81.7,72.6,30.06,North,0,0.0,0.0,74,0.00,,,0.00,VWS V14.01,2013-08-27 14:25:00,
2013-08-27 10:26:00,81.7,72.2,30.06,North,0,0.0,0.0,73,0.00,,,0.00,VWS V14.01,2013-08-27 14:26:00,
2013-08-27 10:29:00,82.0,72.1,30.06,North,0,0.0,0.0,72,0.00,,,0.00,VWS V14.01,2013-08-27 14:29:00,
2013-08-27 10:30:00,82.2,71.9,30.06,North,0,0.0,0.0,71,0.00,,,0.00,VWS V14.01,2013-08-27 14:30:00,
2013-08-27 10:32:00,82.2,71.9,30.06,North,0,0.0,0.0,71,0.00,,,0.00,VWS V14.01,2013-08-27 14:32:00,
2013-08-27 10:33:00,82.4,71.2,30.06,North,0,0.0,0.0,69,0.00,,,0.00,VWS V14.01,2013-08-27 14:33:00,
2013-08-27 10:37:00,82.8,71.1,30.06,North,0,0.0,0.0,68,0.00,,,0.00,VWS V14.01,2013-08-27 14:37:00,
2013-08-27 10:38:00,82.8,70.7,30.06,North,0,0.0,0.0,67,0.00,,,0.00,VWS V14.01,2013-08-27 14:38:00,
2013-08-27 10:39:00,82.9,70.9,30.06,North,0,0.0,0.0,67,0.00,,,0.00,VWS V14.01,2013-08-27 14:39:00,
2013-08-27 10:40:00,82.9,70.9,30.06,North,0,0.0,0.0,67,0.00,,,0.00,VWS V14.01,2013-08-27 14:40:00,
2013-08-27 10:42:00,82.9,70.4,30.06,North,0,0.0,0.0,66,0.00,,,0.00,VWS V14.01,2013-08-27 14:42:00,
2013-08-27 10:46:00,83.1,70.1,30.06,North,0,0.0,0.0,65,0.00,,,0.00,VWS V14.01,2013-08-27 14:46:00,
2013-08-27 10:47:00,83.1,70.1,30.06,North,0,0.0,0.0,65,0.00,,,0.00,VWS V14.01,2013-08-27 14:47:00,
2013-08-27 10:48:00,83.1,70.1,30.06,North,0,0.0,0.0,65,0.00,,,0.00,VWS V14.01,2013-08-27 14:48:00,
2013-08-27 10:53:00,83.1,69.2,30.06,North,0,0.0,0.0,63,0.00,,,0.00,VWS V14.01,2013-08-27 14:53:00,
2013-08-27 10:54:00,83.1,69.2,30.06,North,0,0.0,0.0,63,0.00,,,0.00,VWS V14.01,2013-08-27 14:54:00,
2013-08-27 10:56:00,83.1,68.3,30.06,North,0,0.0,0.0,61,0.00,,,0.00,VWS V14.01,2013-08-27 14:56:00,
2013-08-27 10:58:00,83.1,67.8,30.06,North,0,0.0,0.0,60,0.00,,,0.00,VWS V14.01,2013-08-27 14:58:00,
2013-08-27 10:59:00,83.1,67.8,30.06,North,0,0.0,0.0,60,0.00,,,0.00,VWS V14.01,2013-08-27 14:59:00,
2013-08-27 11:00:00,83.3,68.0,30.06,North,0,0.0,0.0,60,0.00,,,0.00,VWS V14.01,2013-08-27 15:00:00,
2013-08-27 11:02:00,83.3,68.0,30.06,North,0,0.0,0.0,60,0.00,,,0.00,VWS V14.01,2013-08-27 15:02:00,
2013-08-27 11:03:00,83.5,68.2,30.06,North,0,0.0,0.0,60,0.00,,,0.00,VWS V14.01,2013-08-27 15:03:00,
2013-08-27 11:05:00,83.7,68.3,30.06,North,0,0.0,0.0,60,0.00,,,0.00,VWS V14.01,2013-08-27 15:05:00,
2013-08-27 11:07:00,83.7,68.3,30.06,North,0,0.0,0.0,60,0.00,,,0.00,VWS V14.01,2013-08-27 15:07:00,
2013-08-27 11:08:00,83.8,68.5,30.06,North,0,0.0,0.0,60,0.00,,,0.00,VWS V14.01,2013-08-27 15:08:00,
2013-08-27 11:11:00,84.0,68.2,30.06,North,0,0.0,0.0,59,0.00,,,0.00,VWS V14.01,2013-08-27 15:11:00,
2013-08-27 11:13:00,84.0,68.2,30.06,North,0,0.0,0.0,59,0.00,,,0.00,VWS V14.01,2013-08-27 15:13:00,
2013-08-27 11:14:00,84.2,67.8,30.06,North,0,0.0,0.0,58,0.00,,,0.00,VWS V14.01,2013-08-27 15:14:00,
2013-08-27 11:16:00,84.2,67.8,30.06,North,0,0.0,0.0,58,0.00,,,0.00,VWS V14.01,2013-08-27 15:16:00,
2013-08-27 11:17:00,84.4,67.5,30.06,North,0,0.0,0.0,57,0.00,,,0.00,VWS V14.01,2013-08-27 15:17:00,
2013-08-27 11:20:00,84.6,68.2,30.06,North,0,0.0,0.0,58,0.00,,,0.00,VWS V14.01,2013-08-27 15:20:00,
2013-08-27 11:22:00,84.7,67.8,30.06,North,0,0.0,0.0,57,0.00,,,0.00,VWS V14.01,2013-08-27 15:22:00,
2013-08-27 11:23:00,84.9,68.0,30.06,North,0,0.0,0.0,57,0.00,,,0.00,VWS V14.01,2013-08-27 15:23:00,
2013-08-27 11:24:00,84.9,68.5,30.06,North,0,0.0,0.0,58,0.00,,,0.00,VWS V14.01,2013-08-27 15:24:00,
2013-08-27 11:25:00,85.1,68.2,30.06,North,0,0.0,0.0,57,0.00,,,0.00,VWS V14.01,2013-08-27 15:25:00,
2013-08-27 11:29:00,85.3,67.8,30.06,North,0,0.0,0.0,56,0.00,,,0.00,VWS V14.01,2013-08-27 15:29:00,
2013-08-27 11:30:00,85.3,67.8,30.06,North,0,0.0,0.0,56,0.00,,,0.00,VWS V14.01,2013-08-27 15:30:00,
2013-08-27 11:31:00,85.3,67.8,30.06,North,0,0.0,0.0,56,0.00,,,0.00,VWS V14.01,2013-08-27 15:31:00,
2013-08-27 11:32:00,85.3,67.3,30.06,North,0,0.0,0.0,55,0.00,,,0.00,VWS V14.01,2013-08-27 15:32:00,
2013-08-27 11:34:00,85.3,67.3,30.06,North,0,0.0,0.0,55,0.00,,,0.00,VWS V14.01,2013-08-27 15:34:00,
2013-08-27 11:37:00,85.3,67.3,30.06,North,0,0.0,0.0,55,0.00,,,0.00,VWS V14.01,2013-08-27 15:37:00,
2013-08-27 11:39:00,85.1,67.1,30.06,North,0,0.0,0.0,55,0.00,,,0.00,VWS V14.01,2013-08-27 15:39:00,
2013-08-27 11:42:00,85.1,67.1,30.06,North,0,0.0,0.0,55,0.00,,,0.00,VWS V14.01,2013-08-27 15:42:00,
2013-08-27 11:43:00,85.1,67.1,30.06,North,0,0.0,0.0,55,0.00,,,0.00,VWS V14.01,2013-08-27 15:43:00,
2013-08-27 11:44:00,85.1,66.6,30.06,North,0,0.0,0.0,54,0.00,,,0.00,VWS V14.01,2013-08-27 15:44:00,
2013-08-27 11:45:00,85.1,66.6,30.06,North,0,0.0,0.0,54,0.00,,,0.00,VWS V14.01,2013-08-27 15:45:00,
2013-08-27 11:46:00,84.9,66.4,30.06,North,0,0.0,0.0,54,0.00,,,0.00,VWS V14.01,2013-08-27 15:46:00,
2013-08-27 11:50:00,84.9,65.9,30.06,North,0,0.0,0.0,53,0.00,,,0.00,VWS V14.01,2013-08-27 15:50:00,
2013-08-27 11:51:00,84.7,65.7,30.06,North,0,0.0,0.0,53,0.00,,,0.00,VWS V14.01,2013-08-27 15:51:00,
2013-08-27 11:54:00,84.7,65.2,30.06,North,0,0.0,0.0,52,0.00,,,0.00,VWS V14.01,2013-08-27 15:54:00,
2013-08-27 11:56:00,84.9,65.3,30.06,North,0,0.0,0.0,52,0.00,,,0.00,VWS V14.01,2013-08-27 15:56:00,
2013-08-27 11:59:00,84.9,65.9,30.06,North,0,0.0,0.0,53,0.00,,,0.00,VWS V14.01,2013-08-27 15:59:00,
2013-08-27 12:00:00,85.1,66.1,30.06,North,0,0.0,0.0,53,0.00,,,0.00,VWS V14.01,2013-08-27 16:00:00,
2013-08-27 12:01:00,85.1,66.1,30.06,North,0,0.0,0.0,53,0.00,,,0.00,VWS V14.01,2013-08-27 16:01:00,
2013-08-27 12:02:00,85.3,66.2,30.06,North,0,0.0,0.0,53,0.00,,,0.00,VWS V14.01,2013-08-27 16:02:00,
2013-08-27 12:04:00,85.5,65.8,30.06,North,0,0.0,0.0,52,0.00,,,0.00,VWS V14.01,2013-08-27 16:04:00,
2013-08-27 12:07:00,85.5,65.3,30.06,North,0,0.0,0.0,51,0.00,,,0.00,VWS V14.01,2013-08-27 16:07:00,
2013-08-27 12:10:00,85.8,66.2,30.06,North,0,0.0,0.0,52,0.00,,,0.00,VWS V14.01,2013-08-27 16:10:00,
2013-08-27 12:11:00,85.8,66.2,30.06,North,0,0.0,0.0,52,0.00,,,0.00,VWS V14.01,2013-08-27 16:11:00,
2013-08-27 12:12:00,86.0,66.3,30.06,North,0,0.0,0.0,52,0.00,,,0.00,VWS V14.01,2013-08-27 16:12:00,
2013-08-27 12:13:00,86.0,65.8,30.06,North,0,0.0,0.0,51,0.00,,,0.00,VWS V14.01,2013-08-27 16:13:00,
2013-08-27 12:18:00,86.4,65.5,30.06,North,0,0.0,0.0,50,0.00,,,0.00,VWS V14.01,2013-08-27 16:18:00,
2013-08-27 12:19:00,86.5,65.7,30.06,North,0,0.0,0.0,50,0.00,,,0.00,VWS V14.01,2013-08-27 16:19:00,
2013-08-27 12:21:00,86.5,65.7,30.06,North,0,0.0,0.0,50,0.00,,,0.00,VWS V14.01,2013-08-27 16:21:00,
2013-08-27 12:24:00,86.7,65.3,30.06,North,0,0.0,0.0,49,0.00,,,0.00,VWS V14.01,2013-08-27 16:24:00,
2013-08-27 12:25:00,86.7,65.3,30.06,North,0,0.0,0.0,49,0.00,,,0.00,VWS V14.01,2013-08-27 16:25:00,
2013-08-27 12:26:00,86.7,65.3,30.06,North,0,0.0,0.0,49,0.00,,,0.00,VWS V14.01,2013-08-27 16:26:00,
2013-08-27 12:30:00,86.9,65.5,30.06,North,0,0.0,0.0,49,0.00,,,0.00,VWS V14.01,2013-08-27 16:30:00,
2013-08-27 12:31:00,86.9,64.9,30.06,North,0,0.0,0.0,48,0.00,,,0.00,VWS V14.01,2013-08-27 16:31:00,
2013-08-27 12:32:00,86.9,64.9,30.06,North,0,0.0,0.0,48,0.00,,,0.00,VWS V14.01,2013-08-27 16:32:00,
2013-08-27 12:35:00,87.1,65.0,30.06,North,0,0.0,0.0,48,0.00,,,0.00,VWS V14.01,2013-08-27 16:35:00,
2013-08-27 12:36:00,87.1,65.0,30.06,North,0,0.0,0.0,48,0.00,,,0.00,VWS V14.01,2013-08-27 16:36:00,
2013-08-27 12:38:00,87.1,65.0,30.06,North,0,0.0,0.0,48,0.00,,,0.00,VWS V14.01,2013-08-27 16:38:00,
2013-08-27 12:42:00,87.4,65.4,30.06,North,0,0.0,0.0,48,0.00,,,0.00,VWS V14.01,2013-08-27 16:42:00,
2013-08-27 12:43:00,87.4,65.4,30.06,North,0,0.0,0.0,48,0.00,,,0.00,VWS V14.01,2013-08-27 16:43:00,
2013-08-27 12:44:00,87.4,64.8,30.03,North,0,0.0,0.0,47,0.00,,,0.00,VWS V14.01,2013-08-27 16:44:00,
2013-08-27 12:45:00,87.6,64.9,30.03,North,0,0.0,0.0,47,0.00,,,0.00,VWS V14.01,2013-08-27 16:45:00,
2013-08-27 12:48:00,87.8,65.1,30.03,North,0,0.0,0.0,47,0.00,,,0.00,VWS V14.01,2013-08-27 16:48:00,
2013-08-27 12:49:00,87.8,64.5,30.03,North,0,0.0,0.0,46,0.00,,,0.00,VWS V14.01,2013-08-27 16:49:00,
2013-08-27 12:50:00,87.8,64.5,30.03,North,0,0.0,0.0,46,0.00,,,0.00,VWS V14.01,2013-08-27 16:50:00,
2013-08-27 12:53:00,87.8,64.5,30.03,North,0,0.0,0.0,46,0.00,,,0.00,VWS V14.01,2013-08-27 16:53:00,
2013-08-27 12:55:00,88.2,64.8,30.03,North,0,0.0,0.0,46,0.00,,,0.00,VWS V14.01,2013-08-27 16:55:00,
2013-08-27 12:59:00,88.5,63.8,30.03,North,0,0.0,0.0,44,0.00,,,0.00,VWS V14.01,2013-08-27 16:59:00,
2013-08-27 13:00:00,88.5,63.8,30.03,North,0,0.0,0.0,44,0.00,,,0.00,VWS V14.01,2013-08-27 17:00:00,
2013-08-27 13:02:00,88.7,64.0,30.03,North,0,0.0,0.0,44,0.00,,,0.00,VWS V14.01,2013-08-27 17:02:00,
2013-08-27 13:03:00,88.7,63.3,30.03,North,0,0.0,0.0,43,0.00,,,0.00,VWS V14.01,2013-08-27 17:03:00,
2013-08-27 13:04:00,88.7,63.3,30.03,North,0,0.0,0.0,43,0.00,,,0.00,VWS V14.01,2013-08-27 17:04:00,
2013-08-27 13:07:00,88.7,63.3,30.03,North,0,0.0,0.0,43,0.00,,,0.00,VWS V14.01,2013-08-27 17:07:00,
2013-08-27 13:09:00,88.9,63.5,30.03,North,0,0.0,0.0,43,0.00,,,0.00,VWS V14.01,2013-08-27 17:09:00,
2013-08-27 13:12:00,88.9,63.5,30.03,North,0,0.0,0.0,43,0.00,,,0.00,VWS V14.01,2013-08-27 17:12:00,
2013-08-27 13:14:00,88.9,63.5,30.03,North,0,0.0,0.0,43,0.00,,,0.00,VWS V14.01,2013-08-27 17:14:00,
2013-08-27 13:15:00,88.9,63.5,30.03,North,0,0.0,0.0,43,0.00,,,0.00,VWS V14.01,2013-08-27 17:15:00,
2013-08-27 13:18:00,88.9,62.8,30.03,North,0,0.0,0.0,42,0.00,,,0.00,VWS V14.01,2013-08-27 17:18:00,
2013-08-27 13:19:00,89.1,63.0,30.03,North,0,0.0,0.0,42,0.00,,,0.00,VWS V14.01,2013-08-27 17:19:00,
2013-08-27 13:21:00,89.1,63.0,30.03,North,0,0.0,0.0,42,0.00,,,0.00,VWS V14.01,2013-08-27 17:21:00,
2013-08-27 13:22:00,89.1,63.0,30.03,North,0,0.0,0.0,42,0.00,,,0.00,VWS V14.01,2013-08-27 17:22:00,
2013-08-27 13:23:00,89.1,63.0,30.03,North,0,0.0,0.0,42,0.00,,,0.00,VWS V14.01,2013-08-27 17:23:00,
2013-08-27 13:25:00,89.2,63.2,30.03,North,0,0.0,0.0,42,0.00,,,0.00,VWS V14.01,2013-08-27 17:25:00,
2013-08-27 13:28:00,89.4,62.6,30.03,North,0,0.0,0.0,41,0.00,,,0.00,VWS V14.01,2013-08-27 17:28:00,
2013-08-27 13:29:00,89.4,62.6,30.03,North,0,0.0,0.0,41,0.00,,,0.00,VWS V14.01,2013-08-27 17:29:00,
2013-08-27 13:32:00,89.6,62.1,30.03,North,0,0.0,0.0,40,0.00,,,0.00,VWS V14.01,2013-08-27 17:32:00,
2013-08-27 13:33:00,89.6,62.1,30.03,North,0,0.0,0.0,40,0.00,,,0.00,VWS V14.01,2013-08-27 17:33:00,
2013-08-27 13:34:00,89.6,62.1,30.03,North,0,0.0,0.0,40,0.00,,,0.00,VWS V14.01,2013-08-27 17:34:00,
2013-08-27 13:35:00,89.8,62.3,30.03,North,0,0.0,0.0,40,0.00,,,0.00,VWS V14.01,2013-08-27 17:35:00,
2013-08-27 13:37:00,89.8,62.3,30.03,North,0,0.0,0.0,40,0.00,,,0.00,VWS V14.01,2013-08-27 17:37:00,
2013-08-27 13:38:00,89.8,62.3,30.03,North,0,0.0,0.0,40,0.00,,,0.00,VWS V14.01,2013-08-27 17:38:00,
2013-08-27 13:41:00,89.8,61.5,30.03,North,0,0.0,0.0,39,0.00,,,0.00,VWS V14.01,2013-08-27 17:41:00,
2013-08-27 13:42:00,89.8,61.5,30.03,North,0,0.0,0.0,39,0.00,,,0.00,VWS V14.01,2013-08-27 17:42:00,
2013-08-27 13:43:00,89.8,61.5,30.03,North,0,0.0,0.0,39,0.00,,,0.00,VWS V14.01,2013-08-27 17:43:00,
2013-08-27 13:45:00,89.8,61.5,30.03,North,0,0.0,0.0,39,0.00,,,0.00,VWS V14.01,2013-08-27 17:45:00,
2013-08-27 13:46:00,89.8,61.5,30.03,North,0,0.0,0.0,39,0.00,,,0.00,VWS V14.01,2013-08-27 17:46:00,
2013-08-27 13:48:00,89.8,61.5,30.03,North,0,0.0,0.0,39,0.00,,,0.00,VWS V14.01,2013-08-27 17:48:00,
2013-08-27 13:52:00,89.8,61.5,30.03,North,0,0.0,0.0,39,0.00,,,0.00,VWS V14.01,2013-08-27 17:52:00,
2013-08-27 13:53:00,89.8,61.5,30.03,North,0,0.0,0.0,39,0.00,,,0.00,VWS V14.01,2013-08-27 17:53:00,
2013-08-27 13:54:00,90.0,61.7,30.03,North,0,0.0,0.0,39,0.00,,,0.00,VWS V14.01,2013-08-27 17:54:00,
2013-08-27 13:56:00,90.0,62.4,30.03,North,0,0.0,0.0,40,0.00,,,0.00,VWS V14.01,2013-08-27 17:56:00,
2013-08-27 14:00:00,90.0,61.7,30.03,North,0,0.0,0.0,39,0.00,,,0.00,VWS V14.01,2013-08-27 18:00:00,
2013-08-27 14:02:00,90.0,61.7,30.03,North,0,0.0,0.0,39,0.00,,,0.00,VWS V14.01,2013-08-27 18:02:00,
2013-08-27 14:06:00,89.8,61.5,30.03,North,0,0.0,0.0,39,0.00,,,0.00,VWS V14.01,2013-08-27 18:06:00,
2013-08-27 14:09:00,89.8,60.8,30.03,North,0,0.0,0.0,38,0.00,,,0.00,VWS V14.01,2013-08-27 18:09:00,
2013-08-27 14:11:00,89.8,60.8,30.00,North,0,0.0,0.0,38,0.00,,,0.00,VWS V14.01,2013-08-27 18:11:00,
2013-08-27 14:12:00,89.8,60.8,30.00,North,0,0.0,0.0,38,0.00,,,0.00,VWS V14.01,2013-08-27 18:12:00,
2013-08-27 14:13:00,89.8,61.5,30.00,North,0,0.0,0.0,39,0.00,,,0.00,VWS V14.01,2013-08-27 18:13:00,
2013-08-27 14:15:00,89.8,61.5,30.03,North,0,0.0,0.0,39,0.00,,,0.00,VWS V14.01,2013-08-27 18:15:00,
2013-08-27 14:17:00,89.8,61.5,30.03,North,0,0.0,0.0,39,0.00,,,0.00,VWS V14.01,2013-08-27 18:17:00,
2013-08-27 14:18:00,89.8,61.5,30.03,North,0,0.0,0.0,39,0.00,,,0.00,VWS V14.01,2013-08-27 18:18:00,
2013-08-27 14:19:00,89.8,61.5,30.03,North,0,0.0,0.0,39,0.00,,,0.00,VWS V14.01,2013-08-27 18:19:00,
2013-08-27 14:20:00,89.8,61.5,30.03,North,0,0.0,0.0,39,0.00,,,0.00,VWS V14.01,2013-08-27 18:20:00,
2013-08-27 14:22:00,89.8,61.5,30.03,North,0,0.0,0.0,39,0.00,,,0.00,VWS V14.01,2013-08-27 18:22:00,
2013-08-27 14:23:00,89.8,61.5,30.03,North,0,0.0,0.0,39,0.00,,,0.00,VWS V14.01,2013-08-27 18:23:00,
2013-08-27 14:25:00,89.8,61.5,30.03,North,0,0.0,0.0,39,0.00,,,0.00,VWS V14.01,2013-08-27 18:25:00,
2013-08-27 14:26:00,89.8,60.8,30.03,North,0,0.0,0.0,38,0.00,,,0.00,VWS V14.01,2013-08-27 18:26:00,
2013-08-27 14:28:00,89.8,60.8,30.03,North,0,0.0,0.0,38,0.00,,,0.00,VWS V14.01,2013-08-27 18:28:00,
2013-08-27 14:30:00,89.8,60.8,30.03,North,0,0.0,0.0,38,0.00,,,0.00,VWS V14.01,2013-08-27 18:30:00,
2013-08-27 14:34:00,89.4,60.5,30.03,North,0,0.0,0.0,38,0.00,,,0.00,VWS V14.01,2013-08-27 18:34:00,
2013-08-27 14:35:00,89.2,60.3,30.03,North,0,0.0,0.0,38,0.00,,,0.00,VWS V14.01,2013-08-27 18:35:00,
2013-08-27 14:39:00,89.1,60.9,30.03,North,0,0.0,0.0,39,0.00,,,0.00,VWS V14.01,2013-08-27 18:39:00,
2013-08-27 14:40:00,88.9,60.0,30.03,North,0,0.0,0.0,38,0.00,,,0.00,VWS V14.01,2013-08-27 18:40:00,
2013-08-27 14:41:00,88.9,60.0,30.03,North,0,0.0,0.0,38,0.00,,,0.00,VWS V14.01,2013-08-27 18:41:00,
2013-08-27 14:44:00,88.7,60.6,30.03,North,0,0.0,0.0,39,0.00,,,0.00,VWS V14.01,2013-08-27 18:44:00,
2013-08-27 14:45:00,88.5,60.4,30.03,North,0,0.0,0.0,39,0.00,,,0.00,VWS V14.01,2013-08-27 18:45:00,
2013-08-27 14:46:00,88.5,59.7,30.03,North,0,0.0,0.0,38,0.00,,,0.00,VWS V14.01,2013-08-27 18:46:00,
2013-08-27 14:47:00,88.3,60.3,30.03,North,0,0.0,0.0,39,0.00,,,0.00,VWS V14.01,2013-08-27 18:47:00,
2013-08-27 14:49:00,88.2,60.1,30.03,North,0,0.0,0.0,39,0.00,,,0.00,VWS V14.01,2013-08-27 18:49:00,
2013-08-27 14:51:00,88.0,60.0,30.03,North,0,0.0,0.0,39,0.00,,,0.00,VWS V14.01,2013-08-27 18:51:00,
2013-08-27 14:52:00,88.0,60.0,30.03,North,0,0.0,0.0,39,0.00,,,0.00,VWS V14.01,2013-08-27 18:52:00,
2013-08-27 14:53:00,88.0,60.0,30.03,North,0,0.0,0.0,39,0.00,,,0.00,VWS V14.01,2013-08-27 18:53:00,
2013-08-27 14:54:00,88.0,60.0,30.03,North,0,0.0,0.0,39,0.00,,,0.00,VWS V14.01,2013-08-27 18:54:00,
2013-08-27 14:56:00,87.6,60.3,30.03,North,0,0.0,0.0,40,0.00,,,0.00,VWS V14.01,2013-08-27 18:56:00,
2013-08-27 14:58:00,87.4,60.9,30.03,North,0,0.0,0.0,41,0.00,,,0.00,VWS V14.01,2013-08-27 18:58:00,
2013-08-27 15:02:00,86.4,63.8,30.03,North,0,0.0,0.0,47,0.00,,,0.00,VWS V14.01,2013-08-27 19:02:00,
2013-08-27 15:03:00,85.8,63.9,30.03,North,0,0.0,0.0,48,0.00,,,0.00,VWS V14.01,2013-08-27 19:03:00,
2013-08-27 15:04:00,85.5,64.7,30.03,North,0,0.0,0.0,50,0.00,,,0.00,VWS V14.01,2013-08-27 19:04:00,
2013-08-27 15:07:00,84.4,64.8,30.03,North,0,0.0,0.0,52,0.00,,,0.00,VWS V14.01,2013-08-27 19:07:00,
2013-08-27 15:09:00,83.8,64.9,30.03,North,0,0.0,0.0,53,0.01,,,0.01,VWS V14.01,2013-08-27 19:09:00,
2013-08-27 15:10:00,83.5,65.1,30.03,North,0,0.0,0.0,54,0.01,,,0.01,VWS V14.01,2013-08-27 19:10:00,
2013-08-27 15:11:00,83.1,65.3,30.03,North,0,0.0,0.0,55,0.01,,,0.01,VWS V14.01,2013-08-27 19:11:00,
2013-08-27 15:13:00,82.8,65.5,30.03,North,0,0.0,0.0,56,0.02,,,0.02,VWS V14.01,2013-08-27 19:13:00,
2013-08-27 15:15:00,82.0,66.3,30.00,North,0,0.0,0.0,59,0.03,,,0.03,VWS V14.01,2013-08-27 19:15:00,
2013-08-27 15:16:00,82.0,66.3,30.00,North,0,0.0,0.0,59,0.03,,,0.03,VWS V14.01,2013-08-27 19:16:00,
2013-08-27 15:17:00,81.5,66.3,30.00,North,0,0.0,0.0,60,0.03,,,0.03,VWS V14.01,2013-08-27 19:17:00,
2013-08-27 15:18:00,81.3,66.1,30.00,North,0,0.0,0.0,60,0.05,,,0.05,VWS V14.01,2013-08-27 19:18:00,
2013-08-27 15:21:00,80.8,66.1,30.00,North,0,0.0,0.0,61,0.06,,,0.06,VWS V14.01,2013-08-27 19:21:00,
2013-08-27 15:22:00,80.8,66.1,30.00,North,0,0.0,0.0,61,0.06,,,0.06,VWS V14.01,2013-08-27 19:22:00,
2013-08-27 15:23:00,80.2,66.5,30.00,North,0,0.0,0.0,63,0.06,,,0.06,VWS V14.01,2013-08-27 19:23:00,
2013-08-27 15:24:00,80.2,66.5,30.00,North,0,0.0,0.0,63,0.06,,,0.06,VWS V14.01,2013-08-27 19:24:00,
2013-08-27 15:25:00,79.9,66.6,30.00,North,0,0.0,0.0,64,0.06,,,0.06,VWS V14.01,2013-08-27 19:25:00,
2013-08-27 15:28:00,79.3,66.6,30.00,North,0,0.0,0.0,65,0.07,,,0.07,VWS V14.01,2013-08-27 19:28:00,
2013-08-27 15:30:00,79.2,66.8,30.00,North,0,0.0,0.0,66,0.07,,,0.07,VWS V14.01,2013-08-27 19:30:00,
2013-08-27 15:31:00,79.0,66.7,30.00,North,0,0.0,0.0,66,0.08,,,0.08,VWS V14.01,2013-08-27 19:31:00,
2013-08-27 15:32:00,79.0,66.7,30.00,North,0,0.0,0.0,66,0.08,,,0.08,VWS V14.01,2013-08-27 19:32:00,
2013-08-27 15:35:00,78.6,66.8,30.00,North,0,0.0,0.0,67,0.09,,,0.09,VWS V14.01,2013-08-27 19:35:00,
2013-08-27 15:36:00,78.4,67.0,30.00,North,0,0.0,0.0,68,0.09,,,0.09,VWS V14.01,2013-08-27 19:36:00,
2013-08-27 15:38:00,78.4,67.0,30.00,North,0,0.0,0.0,68,0.09,,,0.09,VWS V14.01,2013-08-27 19:38:00,
2013-08-27 15:40:00,78.3,67.3,30.00,North,0,0.0,0.0,69,0.09,,,0.09,VWS V14.01,2013-08-27 19:40:00,
2013-08-27 15:41:00,78.1,67.1,30.00,North,0,0.0,0.0,69,0.09,,,0.09,VWS V14.01,2013-08-27 19:41:00,
2013-08-27 15:43:00,78.1,67.1,30.00,North,0,0.0,0.0,69,0.09,,,0.09,VWS V14.01,2013-08-27 19:43:00,
2013-08-27 15:45:00,77.9,67.3,30.00,North,0,0.0,0.0,70,0.09,,,0.09,VWS V14.01,2013-08-27 19:45:00,
2013-08-27 15:46:00,77.9,67.8,30.00,North,0,0.0,0.0,71,0.09,,,0.09,VWS V14.01,2013-08-27 19:46:00,
2013-08-27 15:49:00,77.9,68.2,30.00,North,0,0.0,0.0,72,0.09,,,0.09,VWS V14.01,2013-08-27 19:49:00,
2013-08-27 15:50:00,77.9,68.6,30.00,North,0,0.0,0.0,73,0.09,,,0.09,VWS V14.01,2013-08-27 19:50:00,
2013-08-27 15:52:00,77.9,68.6,30.00,North,0,0.0,0.0,73,0.09,,,0.09,VWS V14.01,2013-08-27 19:52:00,
2013-08-27 15:54:00,78.1,69.1,30.00,North,0,0.0,0.0,74,0.09,,,0.09,VWS V14.01,2013-08-27 19:54:00,
2013-08-27 15:56:00,78.1,69.1,30.00,North,0,0.0,0.0,74,0.09,,,0.09,VWS V14.01,2013-08-27 19:56:00,
2013-08-27 15:57:00,78.1,69.5,30.00,North,0,0.0,0.0,75,0.09,,,0.09,VWS V14.01,2013-08-27 19:57:00,
2013-08-27 15:59:00,78.1,69.5,30.00,North,0,0.0,0.0,75,0.09,,,0.09,VWS V14.01,2013-08-27 19:59:00,
2013-08-27 16:02:00,78.3,69.7,30.00,North,0,0.0,0.0,75,0.09,,,0.09,VWS V14.01,2013-08-27 20:02:00,
2013-08-27 16:03:00,78.3,69.7,30.00,North,0,0.0,0.0,75,0.09,,,0.09,VWS V14.01,2013-08-27 20:03:00,
2013-08-27 16:04:00,78.4,70.2,30.00,North,0,0.0,0.0,76,0.09,,,0.09,VWS V14.01,2013-08-27 20:04:00,
2013-08-27 16:05:00,78.6,70.4,30.00,North,0,0.0,0.0,76,0.09,,,0.09,VWS V14.01,2013-08-27 20:05:00,
2013-08-27 16:07:00,78.6,70.4,30.00,North,0,0.0,0.0,76,0.09,,,0.09,VWS V14.01,2013-08-27 20:07:00,
2013-08-27 16:11:00,79.0,70.8,30.00,North,0,0.0,0.0,76,0.08,,,0.09,VWS V14.01,2013-08-27 20:11:00,
2013-08-27 16:12:00,79.0,70.4,30.00,North,0,0.0,0.0,75,0.08,,,0.09,VWS V14.01,2013-08-27 20:12:00,
2013-08-27 16:16:00,79.3,70.7,30.00,North,0,0.0,0.0,75,0.06,,,0.09,VWS V14.01,2013-08-27 20:16:00,
2013-08-27 16:17:00,79.5,70.9,30.00,North,0,0.0,0.0,75,0.06,,,0.09,VWS V14.01,2013-08-27 20:17:00,
2013-08-27 16:19:00,79.7,71.1,30.00,North,0,0.0,0.0,75,0.05,,,0.09,VWS V14.01,2013-08-27 20:19:00,
2013-08-27 16:22:00,80.2,71.2,30.00,North,0,0.0,0.0,74,0.03,,,0.09,VWS V14.01,2013-08-27 20:22:00,
2013-08-27 16:25:00,80.4,71.0,30.00,North,0,0.0,0.0,73,0.03,,,0.09,VWS V14.01,2013-08-27 20:25:00,
2013-08-27 16:26:00,80.4,70.6,30.00,North,0,0.0,0.0,72,0.03,,,0.09,VWS V14.01,2013-08-27 20:26:00,
2013-08-27 16:27:00,80.6,70.3,30.00,North,0,0.0,0.0,71,0.02,,,0.09,VWS V14.01,2013-08-27 20:27:00,
2013-08-27 16:30:00,80.6,69.5,30.03,North,0,0.0,0.0,69,0.02,,,0.09,VWS V14.01,2013-08-27 20:30:00,
2013-08-27 16:32:00,80.6,69.1,30.03,North,0,0.0,0.0,68,0.01,,,0.09,VWS V14.01,2013-08-27 20:32:00,
2013-08-27 16:33:00,80.4,68.9,30.03,North,0,0.0,0.0,68,0.01,,,0.09,VWS V14.01,2013-08-27 20:33:00,
2013-08-27 16:36:00,80.4,68.9,30.03,North,0,0.0,0.0,68,0.00,,,0.09,VWS V14.01,2013-08-27 20:36:00,
2013-08-27 16:37:00,80.4,68.9,30.03,North,0,0.0,0.0,68,0.00,,,0.09,VWS V14.01,2013-08-27 20:37:00,
2013-08-27 16:39:00,80.6,69.1,30.03,North,0,0.0,0.0,68,0.00,,,0.09,VWS V14.01,2013-08-27 20:39:00,
2013-08-27 16:42:00,80.6,69.1,30.03,North,0,0.0,0.0,68,0.00,,,0.09,VWS V14.01,2013-08-27 20:42:00,
2013-08-27 16:44:00,80.6,69.1,30.03,North,0,0.0,0.0,68,0.00,,,0.09,VWS V14.01,2013-08-27 20:44:00,
2013-08-27 16:47:00,80.8,69.2,30.03,North,0,0.0,0.0,68,0.00,,,0.09,VWS V14.01,2013-08-27 20:47:00,
2013-08-27 16:49:00,80.8,69.2,30.03,North,0,0.0,0.0,68,0.00,,,0.09,VWS V14.01,2013-08-27 20:49:00,
2013-08-27 16:51:00,80.6,68.6,30.03,North,0,0.0,0.0,67,0.00,,,0.09,VWS V14.01,2013-08-27 20:51:00,
2013-08-27 16:53:00,80.6,68.2,30.03,North,0,0.0,0.0,66,0.00,,,0.09,VWS V14.01,2013-08-27 20:53:00,
2013-08-27 16:54:00,80.4,68.0,30.03,North,0,0.0,0.0,66,0.00,,,0.09,VWS V14.01,2013-08-27 20:54:00,
2013-08-27 16:57:00,80.2,67.9,30.03,North,0,0.0,0.0,66,0.00,,,0.09,VWS V14.01,2013-08-27 20:57:00,
2013-08-27 16:58:00,80.2,67.9,30.03,North,0,0.0,0.0,66,0.00,,,0.09,VWS V14.01,2013-08-27 20:58:00,
2013-08-27 16:59:00,80.2,67.9,30.03,North,0,0.0,0.0,66,0.00,,,0.09,VWS V14.01,2013-08-27 20:59:00,
2013-08-27 17:01:00,80.2,67.9,30.03,North,0,0.0,0.0,66,0.00,,,0.09,VWS V14.01,2013-08-27 21:01:00,
2013-08-27 17:03:00,80.1,67.2,30.03,North,0,0.0,0.0,65,0.00,,,0.09,VWS V14.01,2013-08-27 21:03:00,
2013-08-27 17:06:00,79.9,66.6,30.03,North,0,0.0,0.0,64,0.00,,,0.09,VWS V14.01,2013-08-27 21:06:00,
2013-08-27 17:07:00,79.9,66.6,30.03,North,0,0.0,0.0,64,0.00,,,0.09,VWS V14.01,2013-08-27 21:07:00,
2013-08-27 17:08:00,79.7,66.5,30.03,North,0,0.0,0.0,64,0.00,,,0.09,VWS V14.01,2013-08-27 21:08:00,
2013-08-27 17:11:00,79.7,66.5,30.03,North,0,0.0,0.0,64,0.00,,,0.09,VWS V14.01,2013-08-27 21:11:00,
2013-08-27 17:12:00,79.7,66.5,30.03,North,0,0.0,0.0,64,0.00,,,0.09,VWS V14.01,2013-08-27 21:12:00,
2013-08-27 17:13:00,79.7,66.5,30.00,North,0,0.0,0.0,64,0.00,,,0.09,VWS V14.01,2013-08-27 21:13:00,
2013-08-27 17:16:00,79.7,66.9,30.00,North,0,0.0,0.0,65,0.00,,,0.09,VWS V14.01,2013-08-27 21:16:00,
2013-08-27 17:17:00,79.7,66.9,30.00,North,0,0.0,0.0,65,0.00,,,0.09,VWS V14.01,2013-08-27 21:17:00,
2013-08-27 17:18:00,79.5,66.7,30.00,North,0,0.0,0.0,65,0.00,,,0.09,VWS V14.01,2013-08-27 21:18:00,
2013-08-27 17:21:00,79.5,66.3,30.00,North,0,0.0,0.0,64,0.00,,,0.09,VWS V14.01,2013-08-27 21:21:00,
2013-08-27 17:22:00,79.5,66.3,30.00,North,0,0.0,0.0,64,0.00,,,0.09,VWS V14.01,2013-08-27 21:22:00,
2013-08-27 17:23:00,79.5,66.3,30.00,North,0,0.0,0.0,64,0.00,,,0.09,VWS V14.01,2013-08-27 21:23:00,
2013-08-27 17:25:00,79.5,66.3,30.00,North,0,0.0,0.0,64,0.00,,,0.09,VWS V14.01,2013-08-27 21:25:00,
2013-08-27 17:28:00,79.5,66.7,30.00,North,0,0.0,0.0,65,0.00,,,0.09,VWS V14.01,2013-08-27 21:28:00,
2013-08-27 17:30:00,79.5,67.2,30.00,North,0,0.0,0.0,66,0.00,,,0.09,VWS V14.01,2013-08-27 21:30:00,
2013-08-27 17:31:00,79.5,67.2,30.00,North,0,0.0,0.0,66,0.00,,,0.09,VWS V14.01,2013-08-27 21:31:00,
2013-08-27 17:34:00,79.5,67.6,30.00,North,0,0.0,0.0,67,0.00,,,0.09,VWS V14.01,2013-08-27 21:34:00,
2013-08-27 17:36:00,79.3,67.9,30.00,North,0,0.0,0.0,68,0.00,,,0.09,VWS V14.01,2013-08-27 21:36:00,
2013-08-27 17:37:00,79.3,67.9,30.00,North,0,0.0,0.0,68,0.01,,,0.10,VWS V14.01,2013-08-27 21:37:00,
2013-08-27 17:41:00,79.3,68.3,30.00,North,0,0.0,0.0,69,0.01,,,0.10,VWS V14.01,2013-08-27 21:41:00,
2013-08-27 17:42:00,79.3,68.3,30.00,North,0,0.0,0.0,69,0.01,,,0.10,VWS V14.01,2013-08-27 21:42:00,
2013-08-27 17:44:00,79.2,68.1,30.03,North,0,0.0,0.0,69,0.01,,,0.10,VWS V14.01,2013-08-27 21:44:00,
2013-08-27 17:46:00,79.2,68.1,30.03,North,0,0.0,0.0,69,0.01,,,0.10,VWS V14.01,2013-08-27 21:46:00,
2013-08-27 17:49:00,79.0,68.4,30.03,North,0,0.0,0.0,70,0.01,,,0.10,VWS V14.01,2013-08-27 21:49:00,
2013-08-27 17:53:00,78.8,69.0,30.03,North,0,0.0,0.0,72,0.02,,,0.12,VWS V14.01,2013-08-27 21:53:00,
2013-08-27 17:54:00,78.8,69.0,30.03,North,0,0.0,0.0,72,0.02,,,0.12,VWS V14.01,2013-08-27 21:54:00,
2013-08-27 17:56:00,78.8,69.4,30.03,North,0,0.0,0.0,73,0.02,,,0.12,VWS V14.01,2013-08-27 21:56:00,
2013-08-27 17:57:00,78.8,69.4,30.03,North,0,0.0,0.0,73,0.02,,,0.12,VWS V14.01,2013-08-27 21:57:00,
2013-08-27 17:58:00,78.8,69.4,30.03,North,0,0.0,0.0,73,0.02,,,0.12,VWS V14.01,2013-08-27 21:58:00,
2013-08-27 18:01:00,78.6,69.7,30.03,North,0,0.0,0.0,74,0.02,,,0.12,VWS V14.01,2013-08-27 22:01:00,
2013-08-27 18:02:00,78.6,70.0,30.03,North,0,0.0,0.0,75,0.02,,,0.12,VWS V14.01,2013-08-27 22:02:00,
2013-08-27 18:03:00,78.6,70.0,30.03,North,0,0.0,0.0,75,0.02,,,0.12,VWS V14.01,2013-08-27 22:03:00,
2013-08-27 18:04:00,78.6,70.0,30.03,North,0,0.0,0.0,75,0.02,,,0.12,VWS V14.01,2013-08-27 22:04:00,
2013-08-27 18:06:00,78.6,70.0,30.03,North,0,0.0,0.0,75,0.02,,,0.12,VWS V14.01,2013-08-27 22:06:00,
2013-08-27 18:07:00,78.6,70.0,30.03,North,0,0.0,0.0,75,0.02,,,0.12,VWS V14.01,2013-08-27 22:07:00,
2013-08-27 18:10:00,78.4,70.2,30.03,North,0,0.0,0.0,76,0.02,,,0.12,VWS V14.01,2013-08-27 22:10:00,
2013-08-27 18:11:00,78.4,70.2,30.03,North,0,0.0,0.0,76,0.02,,,0.12,VWS V14.01,2013-08-27 22:11:00,
2013-08-27 18:14:00,78.4,70.2,30.03,North,0,0.0,0.0,76,0.02,,,0.12,VWS V14.01,2013-08-27 22:14:00,
2013-08-27 18:17:00,78.3,70.1,30.03,North,0,0.0,0.0,76,0.02,,,0.12,VWS V14.01,2013-08-27 22:17:00,
2013-08-27 18:18:00,78.3,70.1,30.03,North,0,0.0,0.0,76,0.02,,,0.12,VWS V14.01,2013-08-27 22:18:00,
2013-08-27 18:21:00,78.1,70.3,30.03,North,0,0.0,0.0,77,0.02,,,0.12,VWS V14.01,2013-08-27 22:21:00,
2013-08-27 18:23:00,78.1,70.3,30.03,North,0,0.0,0.0,77,0.02,,,0.12,VWS V14.01,2013-08-27 22:23:00,
2013-08-27 18:24:00,77.9,69.7,30.03,North,0,0.0,0.0,76,0.02,,,0.12,VWS V14.01,2013-08-27 22:24:00,
2013-08-27 18:27:00,77.9,69.7,30.03,North,0,0.0,0.0,76,0.02,,,0.12,VWS V14.01,2013-08-27 22:27:00,
2013-08-27 18:30:00,77.7,69.9,30.03,North,0,0.0,0.0,77,0.02,,,0.12,VWS V14.01,2013-08-27 22:30:00,
2013-08-27 18:32:00,77.7,69.9,30.03,North,0,0.0,0.0,77,0.02,,,0.12,VWS V14.01,2013-08-27 22:32:00,
2013-08-27 18:33:00,77.7,69.9,30.03,North,0,0.0,0.0,77,0.02,,,0.12,VWS V14.01,2013-08-27 22:33:00,
2013-08-27 18:35:00,77.7,69.9,30.03,North,0,0.0,0.0,77,0.02,,,0.12,VWS V14.01,2013-08-27 22:35:00,
2013-08-27 18:37:00,77.7,69.9,30.03,North,0,0.0,0.0,77,0.02,,,0.12,VWS V14.01,2013-08-27 22:37:00,
2013-08-27 18:38:00,77.5,69.8,30.03,North,0,0.0,0.0,77,0.01,,,0.12,VWS V14.01,2013-08-27 22:38:00,
2013-08-27 18:39:00,77.5,69.8,30.03,North,0,0.0,0.0,77,0.01,,,0.12,VWS V14.01,2013-08-27 22:39:00,
2013-08-27 18:40:00,77.5,69.8,30.03,North,0,0.0,0.0,77,0.01,,,0.12,VWS V14.01,2013-08-27 22:40:00,
2013-08-27 18:41:00,77.5,69.8,30.03,North,0,0.0,0.0,77,0.01,,,0.12,VWS V14.01,2013-08-27 22:41:00,
2013-08-27 18:43:00,77.4,69.6,30.00,North,0,0.0,0.0,77,0.01,,,0.12,VWS V14.01,2013-08-27 22:43:00,
2013-08-27 18:46:00,77.4,69.6,30.00,North,0,0.0,0.0,77,0.01,,,0.12,VWS V14.01,2013-08-27 22:46:00,
2013-08-27 18:48:00,77.4,69.6,30.00,North,0,0.0,0.0,77,0.01,,,0.12,VWS V14.01,2013-08-27 22:48:00,
2013-08-27 18:49:00,77.2,69.4,30.00,North,0,0.0,0.0,77,0.01,,,0.12,VWS V14.01,2013-08-27 22:49:00,
2013-08-27 18:50:00,77.2,69.4,30.00,North,0,0.0,0.0,77,0.01,,,0.12,VWS V14.01,2013-08-27 22:50:00,
2013-08-27 18:51:00,77.2,69.8,30.00,North,0,0.0,0.0,78,0.01,,,0.12,VWS V14.01,2013-08-27 22:51:00,
2013-08-27 18:53:00,77.2,69.8,30.00,North,0,0.0,0.0,78,0.01,,,0.12,VWS V14.01,2013-08-27 22:53:00,
2013-08-27 18:54:00,77.2,69.8,30.00,North,0,0.0,0.0,78,0.00,,,0.12,VWS V14.01,2013-08-27 22:54:00,
2013-08-27 18:57:00,77.2,69.8,30.00,North,0,0.0,0.0,78,0.00,,,0.12,VWS V14.01,2013-08-27 22:57:00,
2013-08-27 18:58:00,77.2,69.8,30.00,North,0,0.0,0.0,78,0.00,,,0.12,VWS V14.01,2013-08-27 22:58:00,
2013-08-27 18:59:00,77.2,69.8,30.03,North,0,0.0,0.0,78,0.00,,,0.12,VWS V14.01,2013-08-27 22:59:00,
2013-08-27 19:03:00,77.2,69.8,30.03,North,0,0.0,0.0,78,0.00,,,0.12,VWS V14.01,2013-08-27 23:03:00,
2013-08-27 19:05:00,77.2,70.2,30.03,North,0,0.0,0.0,79,0.00,,SCT100,0.12,VWS V14.01,2013-08-27 23:05:00,
2013-08-27 19:06:00,77.2,70.2,30.03,North,0,0.0,0.0,79,0.00,,SCT100,0.12,VWS V14.01,2013-08-27 23:06:00,
2013-08-27 19:07:00,77.2,70.2,30.03,North,0,0.0,0.0,79,0.00,,SCT100,0.12,VWS V14.01,2013-08-27 23:07:00,
2013-08-27 19:08:00,77.2,70.2,30.03,North,0,0.0,0.0,79,0.00,,SCT100,0.12,VWS V14.01,2013-08-27 23:08:00,
2013-08-27 19:10:00,77.2,70.2,30.03,North,0,0.0,0.0,79,0.00,,SCT100,0.12,VWS V14.01,2013-08-27 23:10:00,
2013-08-27 19:11:00,77.2,70.2,30.03,North,0,0.0,0.0,79,0.00,,SCT100,0.12,VWS V14.01,2013-08-27 23:11:00,
2013-08-27 19:12:00,77.2,70.2,30.03,North,0,0.0,0.0,79,0.00,,SCT100,0.12,VWS V14.01,2013-08-27 23:12:00,
2013-08-27 19:13:00,77.2,70.2,30.03,North,0,0.0,0.0,79,0.00,,SCT100,0.12,VWS V14.01,2013-08-27 23:13:00,
2013-08-27 19:16:00,77.2,70.2,30.03,North,0,0.0,0.0,79,0.00,,SCT100,0.12,VWS V14.01,2013-08-27 23:16:00,
2013-08-27 19:17:00,77.2,70.2,30.03,North,0,0.0,0.0,79,0.00,,SCT100,0.12,VWS V14.01,2013-08-27 23:17:00,
2013-08-27 19:19:00,77.2,70.2,30.03,North,0,0.0,0.0,79,0.00,,SCT100,0.12,VWS V14.01,2013-08-27 23:19:00,
2013-08-27 19:20:00,77.0,70.0,30.03,North,0,0.0,0.0,79,0.00,,SCT100,0.12,VWS V14.01,2013-08-27 23:20:00,
2013-08-27 19:23:00,77.0,70.0,30.03,North,0,0.0,0.0,79,0.00,,SCT100,0.12,VWS V14.01,2013-08-27 23:23:00,
2013-08-27 19:25:00,77.0,70.0,30.03,North,0,0.0,0.0,79,0.00,,SCT100,0.12,VWS V14.01,2013-08-27 23:25:00,
2013-08-27 19:26:00,77.0,70.0,30.03,North,0,0.0,0.0,79,0.00,,SCT100,0.12,VWS V14.01,2013-08-27 23:26:00,
2013-08-27 19:27:00,77.0,70.0,30.03,North,0,0.0,0.0,79,0.00,,SCT100,0.12,VWS V14.01,2013-08-27 23:27:00,
2013-08-27 19:28:00,77.0,70.0,30.03,North,0,0.0,0.0,79,0.00,,SCT100,0.12,VWS V14.01,2013-08-27 23:28:00,
2013-08-27 19:31:00,77.0,70.4,30.03,North,0,0.0,0.0,80,0.00,,SCT100,0.12,VWS V14.01,2013-08-27 23:31:00,
2013-08-27 19:33:00,77.0,70.4,30.03,North,0,0.0,0.0,80,0.00,,SCT100,0.12,VWS V14.01,2013-08-27 23:33:00,
2013-08-27 19:35:00,77.0,70.4,30.03,North,0,0.0,0.0,80,0.00,,SCT100,0.12,VWS V14.01,2013-08-27 23:35:00,
2013-08-27 19:36:00,77.0,70.4,30.03,North,0,0.0,0.0,80,0.00,,SCT100,0.12,VWS V14.01,2013-08-27 23:36:00,
2013-08-27 19:38:00,77.0,70.4,30.03,North,0,0.0,0.0,80,0.00,,SCT100,0.12,VWS V14.01,2013-08-27 23:38:00,
2013-08-27 19:39:00,77.0,70.4,30.03,North,0,0.0,0.0,80,0.00,,SCT100,0.12,VWS V14.01,2013-08-27 23:39:00,
2013-08-27 19:40:00,77.0,70.4,30.03,North,0,0.0,0.0,80,0.00,,SCT100,0.12,VWS V14.01,2013-08-27 23:40:00,
2013-08-27 19:41:00,76.8,70.2,30.03,North,0,0.0,0.0,80,0.00,,SCT100,0.12,VWS V14.01,2013-08-27 23:41:00,
2013-08-27 19:45:00,76.8,70.2,30.00,North,0,0.0,0.0,80,0.00,,SCT100,0.12,VWS V14.01,2013-08-27 23:45:00,
2013-08-27 19:47:00,76.8,70.2,30.00,North,0,0.0,0.0,80,0.00,,SCT100,0.12,VWS V14.01,2013-08-27 23:47:00,
2013-08-27 19:48:00,76.8,70.2,30.00,North,0,0.0,0.0,80,0.00,,SCT100,0.12,VWS V14.01,2013-08-27 23:48:00,
2013-08-27 19:51:00,76.6,70.0,30.00,North,0,0.0,0.0,80,0.00,,SCT100,0.12,VWS V14.01,2013-08-27 23:51:00,
2013-08-27 19:52:00,76.6,70.0,30.00,North,0,0.0,0.0,80,0.00,,SCT100,0.12,VWS V14.01,2013-08-27 23:52:00,
2013-08-27 19:53:00,76.6,70.0,30.00,North,0,0.0,0.0,80,0.00,,SCT100,0.12,VWS V14.01,2013-08-27 23:53:00,
2013-08-27 19:56:00,76.6,70.0,30.00,North,0,0.0,0.0,80,0.00,,SCT100,0.12,VWS V14.01,2013-08-27 23:56:00,
2013-08-27 19:58:00,76.6,70.4,30.00,North,0,0.0,0.0,81,0.00,,SCT100,0.12,VWS V14.01,2013-08-27 23:58:00,
2013-08-27 19:59:00,76.6,70.4,30.00,North,0,0.0,0.0,81,0.00,,SCT100,0.12,VWS V14.01,2013-08-27 23:59:00,
2013-08-27 20:00:00,76.6,70.4,30.00,North,0,0.0,0.0,81,0.00,,SCT100,0.12,VWS V14.01,2013-08-28 00:00:00,
2013-08-27 20:01:00,76.6,70.4,30.00,North,0,0.0,0.0,81,0.00,,SCT100,0.12,VWS V14.01,2013-08-28 00:01:00,
2013-08-27 20:03:00,76.6,70.4,30.00,North,0,0.0,0.0,81,0.00,,SCT100,0.12,VWS V14.01,2013-08-28 00:03:00,
2013-08-27 20:06:00,76.5,70.2,30.00,North,0,0.0,0.0,81,0.00,,SCT100,0.12,VWS V14.01,2013-08-28 00:06:00,
2013-08-27 20:07:00,76.5,70.2,30.00,North,0,0.0,0.0,81,0.00,,SCT100,0.12,VWS V14.01,2013-08-28 00:07:00,
2013-08-27 20:12:00,76.5,70.2,30.00,North,0,0.0,0.0,81,0.00,,SCT100,0.12,VWS V14.01,2013-08-28 00:12:00,
2013-08-27 20:13:00,76.5,70.2,30.00,North,0,0.0,0.0,81,0.00,,SCT100,0.12,VWS V14.01,2013-08-28 00:13:00,
2013-08-27 20:14:00,76.5,70.2,30.00,North,0,0.0,0.0,81,0.00,,SCT100,0.12,VWS V14.01,2013-08-28 00:14:00,
2013-08-27 20:18:00,76.5,70.6,30.00,North,0,0.0,0.0,82,0.00,,SCT100,0.12,VWS V14.01,2013-08-28 00:18:00,
2013-08-27 20:19:00,76.5,70.6,30.00,North,0,0.0,0.0,82,0.00,,SCT100,0.12,VWS V14.01,2013-08-28 00:19:00,
2013-08-27 20:22:00,76.5,70.6,30.00,North,0,0.0,0.0,82,0.00,,SCT100,0.12,VWS V14.01,2013-08-28 00:22:00,
2013-08-27 20:23:00,76.5,70.6,30.00,North,0,0.0,0.0,82,0.00,,SCT100,0.12,VWS V14.01,2013-08-28 00:23:00,
2013-08-27 20:24:00,76.5,70.6,30.00,North,0,0.0,0.0,82,0.00,,SCT100,0.12,VWS V14.01,2013-08-28 00:24:00,
2013-08-27 20:25:00,76.5,70.6,30.00,North,0,0.0,0.0,82,0.00,,SCT100,0.12,VWS V14.01,2013-08-28 00:25:00,
2013-08-27 20:28:00,76.5,70.6,30.00,North,0,0.0,0.0,82,0.00,,SCT100,0.12,VWS V14.01,2013-08-28 00:28:00,
2013-08-27 20:29:00,76.5,70.6,30.00,North,0,0.0,0.0,82,0.00,,SCT100,0.12,VWS V14.01,2013-08-28 00:29:00,
2013-08-27 20:30:00,76.5,70.6,30.00,North,0,0.0,0.0,82,0.00,,SCT100,0.12,VWS V14.01,2013-08-28 00:30:00,
2013-08-27 20:32:00,76.5,70.6,30.00,North,0,0.0,0.0,82,0.00,,SCT100,0.12,VWS V14.01,2013-08-28 00:32:00,
2013-08-27 20:35:00,76.5,70.6,30.00,North,0,0.0,0.0,82,0.00,,SCT100,0.12,VWS V14.01,2013-08-28 00:35:00,
2013-08-27 20:36:00,76.5,70.6,30.00,North,0,0.0,0.0,82,0.00,,SCT100,0.12,VWS V14.01,2013-08-28 00:36:00,
2013-08-27 20:37:00,76.5,70.6,30.00,North,0,0.0,0.0,82,0.00,,SCT100,0.12,VWS V14.01,2013-08-28 00:37:00,
2013-08-27 20:40:00,76.3,70.4,30.00,North,0,0.0,0.0,82,0.00,,SCT100,0.12,VWS V14.01,2013-08-28 00:40:00,
2013-08-27 20:41:00,76.3,70.4,30.00,North,0,0.0,0.0,82,0.00,,SCT100,0.12,VWS V14.01,2013-08-28 00:41:00,
2013-08-27 20:43:00,76.3,70.4,30.00,North,0,0.0,0.0,82,0.00,,SCT100,0.12,VWS V14.01,2013-08-28 00:43:00,
2013-08-27 20:44:00,76.5,70.6,30.00,North,0,0.0,0.0,82,0.00,,SCT100,0.12,VWS V14.01,2013-08-28 00:44:00,
2013-08-27 20:47:00,76.5,70.6,30.00,North,0,0.0,0.0,82,0.00,,SCT100,0.12,VWS V14.01,2013-08-28 00:47:00,
2013-08-27 20:48:00,76.5,70.6,30.00,North,0,0.0,0.0,82,0.00,,SCT100,0.12,VWS V14.01,2013-08-28 00:48:00,
2013-08-27 20:50:00,76.5,70.6,30.00,North,0,0.0,0.0,82,0.00,,SCT100,0.12,VWS V14.01,2013-08-28 00:50:00,
2013-08-27 20:53:00,76.5,70.6,30.00,North,0,0.0,0.0,82,0.00,,SCT100,0.12,VWS V14.01,2013-08-28 00:53:00,
2013-08-27 20:55:00,76.5,70.6,30.00,North,0,0.0,0.0,82,0.00,,SCT100,0.12,VWS V14.01,2013-08-28 00:55:00,
2013-08-27 20:58:00,76.5,70.6,30.00,North,0,0.0,0.0,82,0.00,,SCT100,0.12,VWS V14.01,2013-08-28 00:58:00,
2013-08-27 21:03:00,76.5,70.6,30.03,North,0,0.0,0.0,82,0.00,,SCT100,0.12,VWS V14.01,2013-08-28 01:03:00,
2013-08-27 21:05:00,76.5,70.6,30.03,North,0,0.0,0.0,82,0.00,,SCT100,0.12,VWS V14.01,2013-08-28 01:05:00,
2013-08-27 21:08:00,76.5,70.6,30.03,North,0,0.0,0.0,82,0.00,,SCT100,0.12,VWS V14.01,2013-08-28 01:08:00,
2013-08-27 21:13:00,76.5,70.9,30.03,North,0,0.0,0.0,83,0.00,,SCT100,0.12,VWS V14.01,2013-08-28 01:13:00,
2013-08-27 21:18:00,76.5,70.9,30.03,North,0,0.0,0.0,83,0.00,,SCT100,0.12,VWS V14.01,2013-08-28 01:18:00,
2013-08-27 21:23:00,76.5,70.9,30.03,North,0,0.0,0.0,83,0.00,,SCT100,0.12,VWS V14.01,2013-08-28 01:23:00,
2013-08-27 21:28:00,76.5,70.9,30.03,North,0,0.0,0.0,83,0.00,,SCT100,0.12,VWS V14.01,2013-08-28 01:28:00,
2013-08-27 21:33:00,76.5,70.9,30.03,North,0,0.0,0.0,83,0.00,,SCT100,0.12,VWS V14.01,2013-08-28 01:33:00,
2013-08-27 21:38:00,76.3,70.7,30.03,North,0,0.0,0.0,83,0.00,,SCT100,0.12,VWS V14.01,2013-08-28 01:38:00,
2013-08-27 21:40:00,76.3,70.7,30.03,North,0,0.0,0.0,83,0.00,,SCT100,0.12,VWS V14.01,2013-08-28 01:40:00,
2013-08-27 21:42:00,76.3,70.7,30.03,North,0,0.0,0.0,83,0.00,,SCT100,0.12,VWS V14.01,2013-08-28 01:42:00,
2013-08-27 21:43:00,76.3,70.7,30.03,North,0,0.0,0.0,83,0.00,,SCT100,0.12,VWS V14.01,2013-08-28 01:43:00,
2013-08-27 21:46:00,76.3,70.7,30.03,North,0,0.0,0.0,83,0.00,,SCT100,0.12,VWS V14.01,2013-08-28 01:46:00,
2013-08-27 21:48:00,76.3,70.7,30.03,North,0,0.0,0.0,83,0.00,,SCT100,0.12,VWS V14.01,2013-08-28 01:48:00,
2013-08-27 21:49:00,76.3,70.7,30.03,North,0,0.0,0.0,83,0.00,,SCT100,0.12,VWS V14.01,2013-08-28 01:49:00,
2013-08-27 21:52:00,76.3,70.7,30.03,North,0,0.0,0.0,83,0.00,,SCT100,0.12,VWS V14.01,2013-08-28 01:52:00,
2013-08-27 21:55:00,76.1,70.6,30.03,North,0,0.0,0.0,83,0.00,,SCT100,0.12,VWS V14.01,2013-08-28 01:55:00,
2013-08-27 22:00:00,76.1,70.6,30.03,North,0,0.0,0.0,83,0.00,,SCT100,0.12,VWS V14.01,2013-08-28 02:00:00,
2013-08-27 22:03:00,76.1,70.6,30.03,North,0,0.0,0.0,83,0.00,,SCT100,0.12,VWS V14.01,2013-08-28 02:03:00,
2013-08-27 22:05:00,76.1,70.6,30.03,North,0,0.0,0.0,83,0.00,,SCT100,0.12,VWS V14.01,2013-08-28 02:05:00,
2013-08-27 22:10:00,76.1,70.6,30.03,North,0,0.0,0.0,83,0.00,,SCT100,0.12,VWS V14.01,2013-08-28 02:10:00,
2013-08-27 22:15:00,76.1,70.6,30.03,North,0,0.0,0.0,83,0.00,,SCT100,0.12,VWS V14.01,2013-08-28 02:15:00,
2013-08-27 22:20:00,76.1,70.6,30.03,North,0,0.0,0.0,83,0.00,,SCT100,0.12,VWS V14.01,2013-08-28 02:20:00,
2013-08-27 22:25:00,76.1,70.9,30.03,North,0,0.0,0.0,84,0.00,,SCT100,0.12,VWS V14.01,2013-08-28 02:25:00,
2013-08-27 22:26:00,76.1,70.9,30.03,North,0,0.0,0.0,84,0.00,,SCT100,0.12,VWS V14.01,2013-08-28 02:26:00,
2013-08-27 22:31:00,76.1,70.9,30.03,North,0,0.0,0.0,84,0.00,,SCT100,0.12,VWS V14.01,2013-08-28 02:31:00,
2013-08-27 22:32:00,76.1,70.9,30.03,North,0,0.0,0.0,84,0.00,,SCT100,0.12,VWS V14.01,2013-08-28 02:32:00,
2013-08-27 22:37:00,76.1,70.9,30.03,North,0,0.0,0.0,84,0.00,,SCT100,0.12,VWS V14.01,2013-08-28 02:37:00,
2013-08-27 22:38:00,76.1,70.9,30.03,North,0,0.0,0.0,84,0.00,,SCT100,0.12,VWS V14.01,2013-08-28 02:38:00,
2013-08-27 22:43:00,75.9,70.7,30.03,North,0,0.0,0.0,84,0.00,,SCT100,0.12,VWS V14.01,2013-08-28 02:43:00,
2013-08-27 22:48:00,75.9,70.7,30.03,North,0,0.0,0.0,84,0.00,,SCT100,0.12,VWS V14.01,2013-08-28 02:48:00,
2013-08-27 22:49:00,75.9,70.7,30.03,North,0,0.0,0.0,84,0.00,,SCT100,0.12,VWS V14.01,2013-08-28 02:49:00,
2013-08-27 22:50:00,75.9,71.1,30.03,North,0,0.0,0.0,85,0.00,,SCT100,0.12,VWS V14.01,2013-08-28 02:50:00,
2013-08-27 22:52:00,75.9,71.1,30.03,North,0,0.0,0.0,85,0.00,,SCT100,0.12,VWS V14.01,2013-08-28 02:52:00,
2013-08-27 22:54:00,75.9,71.1,30.03,North,0,0.0,0.0,85,0.00,,SCT100,0.12,VWS V14.01,2013-08-28 02:54:00,
2013-08-27 22:55:00,75.9,71.1,30.03,North,0,0.0,0.0,85,0.00,,SCT100,0.12,VWS V14.01,2013-08-28 02:55:00,
2013-08-27 22:56:00,75.9,71.1,30.03,North,0,0.0,0.0,85,0.00,,SCT100,0.12,VWS V14.01,2013-08-28 02:56:00,
2013-08-27 22:59:00,75.9,71.1,30.03,North,0,0.0,0.0,85,0.00,,SCT100,0.12,VWS V14.01,2013-08-28 02:59:00,
2013-08-27 23:00:00,75.9,71.1,30.03,North,0,0.0,0.0,85,0.00,,SCT100,0.12,VWS V14.01,2013-08-28 03:00:00,
2013-08-27 23:02:00,75.9,71.1,30.03,North,0,0.0,0.0,85,0.00,,SCT100,0.12,VWS V14.01,2013-08-28 03:02:00,
2013-08-27 23:06:00,75.9,71.1,30.03,North,0,0.0,0.0,85,0.00,,SCT100,0.12,VWS V14.01,2013-08-28 03:06:00,
2013-08-27 23:07:00,75.9,71.1,30.03,North,0,0.0,0.0,85,0.00,,SCT100,0.12,VWS V14.01,2013-08-28 03:07:00,
2013-08-27 23:08:00,75.9,71.1,30.03,North,0,0.0,0.0,85,0.00,,SCT100,0.12,VWS V14.01,2013-08-28 03:08:00,
2013-08-27 23:10:00,75.9,71.1,30.03,North,0,0.0,0.0,85,0.00,,SCT100,0.12,VWS V14.01,2013-08-28 03:10:00,
2013-08-27 23:11:00,75.9,71.1,30.03,North,0,0.0,0.0,85,0.00,,SCT100,0.12,VWS V14.01,2013-08-28 03:11:00,
2013-08-27 23:12:00,75.9,71.1,30.03,North,0,0.0,0.0,85,0.00,,SCT100,0.12,VWS V14.01,2013-08-28 03:12:00,
2013-08-27 23:17:00,75.9,71.1,30.03,North,0,0.0,0.0,85,0.00,,SCT100,0.12,VWS V14.01,2013-08-28 03:17:00,
2013-08-27 23:18:00,75.9,71.1,30.03,North,0,0.0,0.0,85,0.00,,SCT100,0.12,VWS V14.01,2013-08-28 03:18:00,
2013-08-27 23:19:00,75.9,71.1,30.03,North,0,0.0,0.0,85,0.00,,SCT100,0.12,VWS V14.01,2013-08-28 03:19:00,
2013-08-27 23:23:00,75.7,70.9,30.03,North,0,0.0,0.0,85,0.00,,SCT100,0.12,VWS V14.01,2013-08-28 03:23:00,
2013-08-27 23:25:00,75.7,70.9,30.03,North,0,0.0,0.0,85,0.00,,SCT100,0.12,VWS V14.01,2013-08-28 03:25:00,
2013-08-27 23:28:00,75.7,70.9,30.03,North,0,0.0,0.0,85,0.00,,SCT100,0.12,VWS V14.01,2013-08-28 03:28:00,
2013-08-27 23:30:00,75.6,70.7,30.03,North,0,0.0,0.0,85,0.00,,SCT100,0.12,VWS V14.01,2013-08-28 03:30:00,
2013-08-27 23:33:00,75.6,70.7,30.03,North,0,0.0,0.0,85,0.00,,SCT100,0.12,VWS V14.01,2013-08-28 03:33:00,
2013-08-27 23:35:00,75.6,70.7,30.03,North,0,0.0,0.0,85,0.00,,SCT100,0.12,VWS V14.01,2013-08-28 03:35:00,
2013-08-27 23:39:00,75.4,70.6,30.03,North,0,0.0,0.0,85,0.00,,SCT100,0.12,VWS V14.01,2013-08-28 03:39:00,
2013-08-27 23:41:00,75.4,70.6,30.03,North,0,0.0,0.0,85,0.00,,SCT100,0.12,VWS V14.01,2013-08-28 03:41:00,
2013-08-27 23:46:00,75.6,70.7,30.03,North,0,0.0,0.0,85,0.00,,SCT100,0.12,VWS V14.01,2013-08-28 03:46:00,
2013-08-27 23:48:00,75.6,70.7,30.03,North,0,0.0,0.0,85,0.00,,SCT100,0.12,VWS V14.01,2013-08-28 03:48:00,
2013-08-27 23:49:00,75.6,70.7,30.03,North,0,0.0,0.0,85,0.00,,SCT100,0.12,VWS V14.01,2013-08-28 03:49:00,
2013-08-27 23:53:00,75.6,70.7,30.03,North,0,0.0,0.0,85,0.00,,SCT100,0.12,VWS V14.01,2013-08-28 03:53:00,
2013-08-27 23:54:00,75.6,70.7,30.03,North,0,0.0,0.0,85,0.00,,SCT100,0.12,VWS V14.01,2013-08-28 03:54:00,
2013-08-27 23:55:00,75.6,70.7,30.03,North,0,0.0,0.0,85,0.00,,SCT100,0.12,VWS V14.01,2013-08-28 03:55:00,
2013-08-27 23:56:00,75.6,71.1,30.03,North,0,0.0,0.0,86,0.00,,SCT100,0.12,VWS V14.01,2013-08-28 03:56:00,
2013-08-27 23:57:00,75.6,71.1,30.03,North,0,0.0,0.0,86,0.00,,SCT100,0.12,VWS V14.01,2013-08-28 03:57:00,
2013-08-27 23:58:00,75.6,71.1,30.03,North,0,0.0,0.0,86,0.00,,SCT100,0.12,VWS V14.01,2013-08-28 03:58:00,